Airfield :
LOGIN :

Register | Disclaimer

   EN    FR    IT 

 










Legend :    VFR   Marginal VFR   IFR   Intensive IFR   Very Intensive IFR
Visi :
Ceiling :
>= 8 km
>= 3000ft
5 to 8 km
1000 to 3000 ft
1500m to 5 km
500 to 1000 ft
800 to 1500m
200 to 500 ft
< 800m
< 200 ft
Symbols :   Thunderstorms  Fog  Heavy snow  Heavy precipitations  Wind > 20 kt
SIGMETs :     Misc.  Thunderstorms  Icing  Turbulence  Mountain Waves  Volcanic Ashes







- Airport Elevation : 1504 ft
- IATA code : PNA


LEPP - Noain Pamplona

CURRENT METAR :
  • 210100Z AUTO 00000KT CAVOK 12/10 Q1020

EXPIRED METARs :
  • 210030Z AUTO 00000KT CAVOK 12/11 Q1020
  • 210000Z AUTO VRB02KT CAVOK 12/11 Q1020
  • 202330Z AUTO VRB01KT 9999 SCT050 12/10 Q1020
  • 202300Z AUTO 00000KT 9999 NCD 12/11 Q1020
  • 202230Z AUTO VRB02KT 9999 NCD 12/10 Q1020

TAF TAF LEPP
Valid from the 20 at 21:00 until the 21 at 21:00 UTC


202000Z 2021/2121 VRB03KT 9999 FEW040 TX16/2115Z TN07/2106Z
BECMG 2104/2108 35010KT
PROB40
TEMPO 2106/2115 3000 -RA BKN010
No reported NOTAMs for that airfield.



MET'MAP, your aeronautical weather chart ! - Copyright ORBIFLY December 2007 - Disclaimer

ORBIFLY MET'MAP TEAM :

Programming & Development : Alexandra Zaïnal
Concept & Development : Baudouin d'Aumeries
Co-Development & Prog : Marc-Olivier Méhu
Technical & hardware support : Manuel Goepfert

Contact : metmap@orbifly.com




SOURCES & CREDITS :

   NOAA